createdAt,value
2023-03-21T00:01:05.404Z,27.43
2023-03-21T00:03:37.110Z,27.69
2023-03-21T00:06:10.406Z,27.27
2023-03-21T00:08:41.855Z,28.56
2023-03-21T00:11:14.465Z,27.60
2023-03-21T00:13:45.142Z,27.16
2023-03-21T00:16:27.638Z,27.97
2023-03-21T00:19:04.778Z,27.94
2023-03-21T00:21:52.322Z,27.45
2023-03-21T00:24:30.336Z,28.08
2023-03-21T00:27:21.916Z,27.02
2023-03-21T00:29:51.825Z,27.50
2023-03-21T00:32:24.351Z,28.04
2023-03-21T00:35:11.784Z,27.81
2023-03-21T00:37:46.089Z,26.94
2023-03-21T00:40:25.767Z,27.97
2023-03-21T00:42:59.312Z,26.84
2023-03-21T00:45:29.739Z,27.45
2023-03-21T00:48:02.730Z,26.64
2023-03-21T00:50:35.930Z,27.79
2023-03-21T00:53:08.335Z,27.64
2023-03-21T00:55:40.152Z,27.08
2023-03-21T00:58:11.100Z,27.65
2023-03-21T01:00:41.875Z,26.80
2023-03-21T01:03:24.608Z,26.80
2023-03-21T01:06:08.353Z,27.46
2023-03-21T01:08:51.688Z,26.93
2023-03-21T01:11:26.259Z,27.19
2023-03-21T01:14:10.953Z,26.71
2023-03-21T01:16:46.076Z,26.80
2023-03-21T01:19:40.598Z,26.60
2023-03-21T01:22:11.128Z,27.76
2023-03-21T01:24:52.346Z,27.90
2023-03-21T01:27:25.544Z,27.61
2023-03-21T01:29:55.796Z,27.74
2023-03-21T01:32:25.996Z,27.24
2023-03-21T01:34:57.671Z,26.57
2023-03-21T01:37:28.223Z,27.58
2023-03-21T01:39:58.571Z,27.61
2023-03-21T01:42:28.981Z,26.57
2023-03-21T01:45:05.458Z,27.82
2023-03-21T01:47:43.780Z,27.00
2023-03-21T01:50:27.177Z,26.84
2023-03-21T01:53:14.796Z,27.20
2023-03-21T01:55:46.342Z,27.70
2023-03-21T01:58:28.120Z,26.92
2023-03-21T02:01:10.589Z,27.36
2023-03-21T02:03:52.391Z,26.76
2023-03-21T02:06:54.532Z,27.57
2023-03-21T02:09:37.493Z,27.35
2023-03-21T02:12:14.366Z,27.66
2023-03-21T02:14:45.567Z,26.79
2023-03-21T02:17:38.045Z,27.44
2023-03-21T02:20:13.236Z,27.12
2023-03-21T02:22:46.432Z,26.91
2023-03-21T02:25:47.214Z,27.56
2023-03-21T02:28:36.030Z,27.11
2023-03-21T02:31:26.486Z,27.28
2023-03-21T02:34:29.728Z,27.48
2023-03-21T02:37:18.768Z,26.92
2023-03-21T02:40:12.683Z,27.16
2023-03-21T02:43:20.820Z,26.94
2023-03-21T02:46:10.534Z,26.50
2023-03-21T02:48:51.180Z,26.73
2023-03-21T02:51:24.840Z,26.90
2023-03-21T02:54:26.393Z,27.29
2023-03-21T02:56:58.474Z,27.03
2023-03-21T02:59:31.118Z,27.20
2023-03-21T03:02:03.648Z,26.91
2023-03-21T03:04:34.066Z,27.33
2023-03-21T03:07:27.036Z,27.53
2023-03-21T03:10:18.552Z,26.85
2023-03-21T03:13:27.644Z,26.66
2023-03-21T03:16:21.374Z,26.44
2023-03-21T03:18:51.163Z,26.63
2023-03-21T03:21:34.190Z,27.15
2023-03-21T03:24:16.166Z,26.78
2023-03-21T03:26:59.348Z,26.82
2023-03-21T03:29:35.829Z,26.51
2023-03-21T03:32:18.664Z,26.88
2023-03-21T03:34:58.681Z,26.78
2023-03-21T03:37:36.259Z,26.56
2023-03-21T03:40:27.906Z,26.30
2023-03-21T03:43:22.482Z,26.67
2023-03-21T03:46:00.686Z,26.36
2023-03-21T03:48:37.945Z,26.53
2023-03-21T03:51:17.797Z,26.32
2023-03-21T03:54:23.414Z,26.36
2023-03-21T03:56:54.695Z,26.67
2023-03-21T03:59:26.760Z,26.32
2023-03-21T04:02:21.703Z,26.39
2023-03-21T04:04:54.925Z,26.17
2023-03-21T04:07:26.690Z,26.21
2023-03-21T04:10:00.757Z,26.40
2023-03-21T04:12:31.228Z,26.57
2023-03-21T04:15:30.249Z,26.31
2023-03-21T04:18:07.540Z,26.50
2023-03-21T04:20:38.067Z,26.63
2023-03-21T04:23:10.058Z,26.17
2023-03-21T04:25:53.990Z,26.24
2023-03-21T04:28:30.036Z,25.83
2023-03-21T04:31:32.657Z,26.09
2023-03-21T04:34:15.004Z,26.73
2023-03-21T04:36:51.165Z,26.53
2023-03-21T04:39:22.526Z,26.16
2023-03-21T04:41:53.340Z,26.25
2023-03-21T04:44:24.827Z,26.24
2023-03-21T04:46:55.112Z,26.40
2023-03-21T04:49:25.386Z,25.98
2023-03-21T04:51:56.118Z,26.17
2023-03-21T04:54:26.563Z,26.56
2023-03-21T04:56:57.236Z,26.47
2023-03-21T04:59:30.196Z,26.36
2023-03-21T05:02:01.361Z,26.07
2023-03-21T05:04:34.830Z,26.88
2023-03-21T05:07:05.377Z,26.40
2023-03-21T05:09:35.813Z,26.32
2023-03-21T05:12:06.417Z,25.99
2023-03-21T05:14:37.986Z,26.23
2023-03-21T05:17:09.648Z,26.27
2023-03-21T05:19:42.102Z,26.99
2023-03-21T05:22:13.649Z,26.21
2023-03-21T05:24:44.595Z,26.31
2023-03-21T05:27:37.067Z,26.40
2023-03-21T05:30:20.307Z,26.45
2023-03-21T05:32:54.064Z,26.48
2023-03-21T05:35:26.461Z,26.65
2023-03-21T05:38:00.326Z,26.03
2023-03-21T05:40:34.570Z,26.16
2023-03-21T05:43:07.297Z,26.50
2023-03-21T05:45:38.691Z,26.66
2023-03-21T05:48:09.394Z,26.43
2023-03-21T05:50:56.196Z,26.47
2023-03-21T05:53:26.790Z,26.58
2023-03-21T05:55:57.392Z,26.18
2023-03-21T05:58:56.963Z,26.15
2023-03-21T06:01:28.353Z,26.32
2023-03-21T06:04:12.275Z,26.58
2023-03-21T06:06:43.381Z,26.52
2023-03-21T06:09:15.117Z,26.51
2023-03-21T06:11:53.757Z,26.33
2023-03-21T06:14:56.334Z,26.57
2023-03-21T06:17:36.504Z,26.48
2023-03-21T06:20:13.088Z,26.21
2023-03-21T06:22:48.916Z,26.72
2023-03-21T06:25:19.336Z,26.28
2023-03-21T06:27:49.716Z,26.43
2023-03-21T06:30:21.245Z,26.71
2023-03-21T06:33:15.485Z,26.33
2023-03-21T06:35:47.005Z,26.75
2023-03-21T06:38:20.619Z,26.46
2023-03-21T06:40:51.713Z,26.45
2023-03-21T06:43:23.824Z,26.73
2023-03-21T06:45:54.496Z,26.72
2023-03-21T06:48:24.936Z,26.64
2023-03-21T06:50:56.260Z,26.36
2023-03-21T06:53:31.948Z,26.49
2023-03-21T06:56:40.560Z,26.11
2023-03-21T06:59:17.698Z,26.32
2023-03-21T07:01:55.388Z,26.27
2023-03-21T07:04:26.485Z,26.66
2023-03-21T07:06:58.705Z,26.59
2023-03-21T07:09:30.446Z,26.12
2023-03-21T07:12:06.587Z,26.24
2023-03-21T07:14:52.643Z,26.23
2023-03-21T07:17:23.414Z,26.84
2023-03-21T07:19:53.605Z,26.51
2023-03-21T07:22:24.329Z,26.05
2023-03-21T07:25:04.465Z,26.86
2023-03-21T07:27:41.519Z,26.45
2023-03-21T07:30:13.649Z,26.22
2023-03-21T07:32:44.291Z,25.89
2023-03-21T07:35:16.319Z,26.06
2023-03-21T07:37:46.972Z,26.11
2023-03-21T07:40:19.588Z,26.42
2023-03-21T07:42:54.869Z,25.43
2023-03-21T07:45:32.739Z,26.35
2023-03-21T07:48:03.867Z,25.54
2023-03-21T07:50:37.220Z,25.74
2023-03-21T07:53:10.366Z,25.72
2023-03-21T07:55:40.882Z,26.50
2023-03-21T07:58:11.279Z,26.62
2023-03-21T08:00:41.499Z,26.70
2023-03-21T08:03:12.353Z,26.24
2023-03-21T08:05:43.625Z,26.57
2023-03-21T08:08:14.397Z,26.10
2023-03-21T08:10:47.668Z,26.24
2023-03-21T08:13:18.096Z,25.86
2023-03-21T08:15:49.377Z,26.21
2023-03-21T08:18:19.674Z,26.04
2023-03-21T08:20:54.934Z,26.69
2023-03-21T08:23:26.198Z,26.00
2023-03-21T08:25:57.971Z,25.88
2023-03-21T08:28:28.376Z,25.89
2023-03-21T08:30:58.980Z,26.69
2023-03-21T08:33:29.478Z,25.91
2023-03-21T08:36:02.706Z,26.05
2023-03-21T08:38:35.051Z,25.90
2023-03-21T08:41:05.916Z,26.29
2023-03-21T08:43:36.438Z,26.02
2023-03-21T08:46:06.922Z,26.05
2023-03-21T08:48:40.351Z,26.49
2023-03-21T08:51:10.925Z,26.53
2023-03-21T08:53:43.029Z,25.88
2023-03-21T08:56:14.295Z,26.59
2023-03-21T08:58:46.116Z,26.26
2023-03-21T09:01:17.189Z,25.82
2023-03-21T09:03:48.398Z,26.23
2023-03-21T09:06:18.976Z,26.35
2023-03-21T09:08:49.894Z,26.42
2023-03-21T09:11:20.276Z,26.61
2023-03-21T09:13:50.452Z,26.53
2023-03-21T09:16:21.115Z,25.86
2023-03-21T09:18:57.068Z,26.14
2023-03-21T09:21:29.774Z,26.09
2023-03-21T09:24:02.270Z,25.91
2023-03-21T09:26:32.686Z,26.12
2023-03-21T09:29:04.633Z,26.41
2023-03-21T09:31:36.140Z,26.23
2023-03-21T09:34:06.553Z,26.49
2023-03-21T09:36:37.711Z,26.91
2023-03-21T09:39:08.653Z,26.14
2023-03-21T09:41:54.484Z,25.94
2023-03-21T09:44:48.134Z,26.80
2023-03-21T09:47:26.623Z,26.77
2023-03-21T09:50:12.855Z,26.24
2023-03-21T09:53:08.823Z,26.24
2023-03-21T09:55:42.701Z,26.13
2023-03-21T09:58:38.660Z,26.18
2023-03-21T10:01:23.674Z,26.42
2023-03-21T10:03:55.949Z,26.10
2023-03-21T10:06:31.631Z,26.07
2023-03-21T10:09:25.956Z,26.21
2023-03-21T10:12:09.914Z,26.71
2023-03-21T10:14:48.094Z,26.46
2023-03-21T10:17:35.891Z,26.42
2023-03-21T10:20:29.844Z,26.89
2023-03-21T10:23:03.665Z,26.34
2023-03-21T10:25:38.533Z,26.68
2023-03-21T10:28:14.459Z,27.04
2023-03-21T10:30:51.269Z,26.89
2023-03-21T10:33:27.725Z,26.20
2023-03-21T10:36:09.202Z,27.14
2023-03-21T10:38:46.258Z,26.37
2023-03-21T10:41:16.660Z,26.26
2023-03-21T10:43:47.436Z,26.87
2023-03-21T10:46:23.136Z,26.60
2023-03-21T10:48:56.141Z,26.62
2023-03-21T10:51:32.607Z,27.00
2023-03-21T10:54:17.962Z,26.79
2023-03-21T10:56:52.813Z,26.50
2023-03-21T10:59:24.499Z,26.45
2023-03-21T11:01:57.874Z,26.70
2023-03-21T11:04:31.328Z,27.18
2023-03-21T11:07:09.009Z,26.92
2023-03-21T11:10:00.002Z,27.07
2023-03-21T11:12:42.315Z,26.87
2023-03-21T11:15:42.842Z,26.91
2023-03-21T11:18:22.317Z,26.52
2023-03-21T11:21:07.059Z,27.44
2023-03-21T11:23:45.424Z,27.29
2023-03-21T11:26:39.697Z,26.79
2023-03-21T11:29:31.110Z,26.72
2023-03-21T11:32:03.993Z,27.10
2023-03-21T11:34:44.626Z,27.04
2023-03-21T11:37:27.795Z,27.25
2023-03-21T11:40:08.434Z,26.91
2023-03-21T11:42:49.633Z,27.44
2023-03-21T11:45:35.167Z,27.42
2023-03-21T11:48:16.892Z,27.07
2023-03-21T11:50:51.727Z,27.11
2023-03-21T11:53:46.958Z,27.54
2023-03-21T11:56:37.921Z,27.27
2023-03-21T11:59:38.762Z,27.21
2023-03-21T12:02:57.308Z,27.19
2023-03-21T12:05:37.795Z,27.48
2023-03-21T12:08:33.201Z,27.25
2023-03-21T12:11:42.205Z,27.20
2023-03-21T12:14:29.569Z,27.42
2023-03-21T12:17:12.130Z,27.32
2023-03-21T12:20:09.741Z,27.36
2023-03-21T12:23:10.692Z,27.81
2023-03-21T12:25:49.589Z,28.01
2023-03-21T12:28:38.181Z,27.62
2023-03-21T12:31:11.284Z,27.64
2023-03-21T12:34:08.887Z,27.48
2023-03-21T12:36:50.314Z,27.15
2023-03-21T12:39:38.204Z,27.29
2023-03-21T12:42:20.566Z,27.31
2023-03-21T12:44:57.668Z,27.67
2023-03-21T12:47:34.719Z,27.63
2023-03-21T12:50:08.684Z,27.64
2023-03-21T12:52:46.439Z,27.88
2023-03-21T12:55:27.646Z,27.65
2023-03-21T12:58:05.957Z,27.92
2023-03-21T13:00:53.394Z,28.08
2023-03-21T13:03:39.793Z,27.45
2023-03-21T13:06:16.511Z,27.82
2023-03-21T13:08:59.275Z,27.83
2023-03-21T13:11:32.847Z,27.95
2023-03-21T13:14:23.859Z,27.75
2023-03-21T13:17:00.524Z,28.26
2023-03-21T13:19:44.724Z,27.92
2023-03-21T13:22:47.694Z,28.13
2023-03-21T13:25:24.142Z,28.13
2023-03-21T13:28:05.700Z,28.31
2023-03-21T13:30:37.236Z,28.36
2023-03-21T13:33:15.987Z,27.94
2023-03-21T13:35:47.935Z,27.96
2023-03-21T13:38:32.189Z,28.00
2023-03-21T13:41:17.380Z,28.24
2023-03-21T13:44:08.164Z,28.36
2023-03-21T13:47:07.389Z,28.21
2023-03-21T13:49:40.004Z,28.07
2023-03-21T13:52:13.668Z,28.14
2023-03-21T13:54:59.788Z,28.41
2023-03-21T13:57:33.527Z,28.32
2023-03-21T14:00:34.722Z,28.53
2023-03-21T14:03:12.042Z,28.46
2023-03-21T14:05:43.165Z,28.65
2023-03-21T14:08:31.183Z,28.49
2023-03-21T14:11:09.975Z,28.51
2023-03-21T14:13:51.207Z,27.87
2023-03-21T14:16:26.867Z,28.55
2023-03-21T14:19:03.395Z,28.32
2023-03-21T14:21:37.850Z,28.73
2023-03-21T14:24:21.790Z,28.38
2023-03-21T14:26:57.830Z,28.52
2023-03-21T14:29:37.340Z,28.56
2023-03-21T14:32:07.841Z,28.41
2023-03-21T14:34:39.189Z,28.28
2023-03-21T14:37:13.633Z,28.42
2023-03-21T14:39:44.084Z,28.66
2023-03-21T14:42:17.231Z,28.60
2023-03-21T14:44:55.639Z,28.59
2023-03-21T14:47:29.458Z,28.66
2023-03-21T14:49:59.597Z,28.72
2023-03-21T14:52:35.286Z,28.48
2023-03-21T14:55:17.514Z,28.65
2023-03-21T14:57:48.091Z,28.83
2023-03-21T15:00:31.333Z,28.37
2023-03-21T15:03:02.633Z,29.13
2023-03-21T15:05:39.218Z,28.78
2023-03-21T15:08:24.395Z,28.81
2023-03-21T15:11:06.918Z,28.70
2023-03-21T15:13:39.614Z,28.66
2023-03-21T15:16:11.764Z,29.03
2023-03-21T15:18:43.392Z,28.64
2023-03-21T15:21:25.362Z,28.65
2023-03-21T15:24:00.893Z,28.74
2023-03-21T15:26:36.499Z,28.61
2023-03-21T15:29:09.078Z,28.80
2023-03-21T15:31:42.848Z,28.52
2023-03-21T15:34:25.863Z,28.65
2023-03-21T15:37:07.033Z,28.62
2023-03-21T15:39:38.150Z,28.76
2023-03-21T15:42:26.443Z,28.49
2023-03-21T15:45:00.314Z,28.56
2023-03-21T15:48:04.634Z,28.49
2023-03-21T15:50:44.342Z,28.90
2023-03-21T15:53:21.650Z,28.68
2023-03-21T15:56:06.176Z,28.56
2023-03-21T15:58:53.760Z,28.78
2023-03-21T16:01:27.904Z,28.47
2023-03-21T16:04:04.203Z,28.81
2023-03-21T16:06:38.021Z,28.76
2023-03-21T16:09:29.336Z,28.69
2023-03-21T16:12:01.327Z,28.82
2023-03-21T16:14:31.716Z,28.81
2023-03-21T16:17:02.561Z,29.01
2023-03-21T16:19:32.922Z,28.84
2023-03-21T16:22:03.555Z,29.12
2023-03-21T16:24:33.772Z,29.26
2023-03-21T16:27:04.504Z,28.83
2023-03-21T16:29:35.644Z,28.85
2023-03-21T16:32:07.877Z,28.90
2023-03-21T16:34:38.925Z,28.63
2023-03-21T16:37:11.581Z,28.60
2023-03-21T16:39:41.949Z,28.77
2023-03-21T16:42:14.651Z,28.87
2023-03-21T16:44:45.021Z,29.12
2023-03-21T16:47:25.379Z,28.54
2023-03-21T16:49:57.205Z,28.83
2023-03-21T16:52:27.940Z,29.22
2023-03-21T16:54:58.091Z,28.91
2023-03-21T16:57:29.683Z,28.86
2023-03-21T16:59:59.997Z,28.84
2023-03-21T17:02:30.418Z,29.00
2023-03-21T17:05:01.697Z,28.88
2023-03-21T17:07:33.447Z,28.93
2023-03-21T17:10:03.903Z,28.80
2023-03-21T17:12:34.261Z,29.12
2023-03-21T17:15:05.006Z,29.44
2023-03-21T17:17:35.653Z,29.28
2023-03-21T17:20:21.032Z,29.02
2023-03-21T17:22:52.422Z,29.12
2023-03-21T17:25:24.154Z,29.06
2023-03-21T17:27:55.705Z,29.13
2023-03-21T17:30:34.593Z,29.10
2023-03-21T17:33:05.817Z,29.06
2023-03-21T17:35:36.840Z,29.17
2023-03-21T17:38:08.852Z,29.55
2023-03-21T17:40:39.473Z,29.24
2023-03-21T17:43:17.544Z,29.29
2023-03-21T17:45:48.567Z,29.40
2023-03-21T17:48:18.974Z,29.03
2023-03-21T17:50:49.453Z,29.04
2023-03-21T17:53:19.803Z,29.27
2023-03-21T17:55:50.102Z,29.29
2023-03-21T17:58:20.579Z,29.03
2023-03-21T18:00:50.709Z,29.21
2023-03-21T18:03:21.790Z,29.13
2023-03-21T18:05:52.337Z,29.54
2023-03-21T18:08:23.644Z,29.33
2023-03-21T18:10:55.082Z,29.55
2023-03-21T18:13:25.584Z,29.54
2023-03-21T18:15:56.594Z,29.43
2023-03-21T18:18:28.752Z,29.65
2023-03-21T18:20:59.821Z,29.48
2023-03-21T18:23:30.335Z,29.87
2023-03-21T18:26:01.206Z,29.48
2023-03-21T18:28:31.934Z,29.86
2023-03-21T18:31:11.233Z,29.84
2023-03-21T18:33:46.537Z,29.45
2023-03-21T18:36:25.331Z,29.41
2023-03-21T18:38:58.229Z,29.19
2023-03-21T18:41:28.684Z,29.35
2023-03-21T18:44:02.237Z,29.63
2023-03-21T18:46:42.028Z,29.66
2023-03-21T18:49:56.086Z,29.66
2023-03-21T18:52:03.397Z,29.62
2023-03-21T18:54:34.593Z,29.22
2023-03-21T18:57:34.998Z,29.99
2023-03-21T18:59:58.162Z,29.66
2023-03-21T19:02:28.977Z,29.55
2023-03-21T19:04:59.351Z,29.73
2023-03-21T19:07:29.710Z,29.99
2023-03-21T19:10:16.392Z,29.55
2023-03-21T19:12:48.195Z,29.74
2023-03-21T19:15:20.981Z,30.06
2023-03-21T19:20:48.476Z,29.67
2023-03-21T19:23:18.897Z,29.39
2023-03-21T19:25:49.674Z,29.63
2023-03-21T19:28:21.328Z,29.61
2023-03-21T19:30:52.061Z,29.86
2023-03-21T19:33:22.544Z,29.87
2023-03-21T19:36:10.659Z,29.62
2023-03-21T19:38:43.647Z,29.72
2023-03-21T19:41:14.808Z,29.64
2023-03-21T19:43:53.623Z,29.43
2023-03-21T19:46:29.006Z,29.54
2023-03-21T19:48:59.577Z,29.89
2023-03-21T19:51:30.839Z,29.51
2023-03-21T19:54:02.858Z,29.69
2023-03-21T19:56:34.499Z,29.87
2023-03-21T19:59:05.821Z,30.08
2023-03-21T20:01:36.268Z,29.94
2023-03-21T20:04:07.024Z,30.08
2023-03-21T20:06:37.515Z,29.84
2023-03-21T20:12:02.010Z,29.88
2023-03-21T20:14:32.823Z,30.26
2023-03-21T20:17:03.636Z,30.43
2023-03-21T20:19:34.802Z,30.43
2023-03-21T20:22:20.242Z,30.41
2023-03-21T20:24:57.447Z,30.25
2023-03-21T20:27:30.426Z,30.20
2023-03-21T20:30:09.060Z,30.11
2023-03-21T20:32:41.761Z,30.33
2023-03-21T20:35:21.130Z,30.52
2023-03-21T20:38:02.176Z,30.69
2023-03-21T20:40:32.882Z,30.82
2023-03-21T20:43:40.144Z,30.62
2023-03-21T20:46:10.890Z,30.33
2023-03-21T20:48:42.124Z,29.92
2023-03-21T20:54:05.074Z,30.58
2023-03-21T20:56:36.119Z,30.50
2023-03-21T20:59:17.754Z,30.74
2023-03-21T21:01:55.261Z,31.26
2023-03-21T21:04:44.172Z,30.82
2023-03-21T21:07:17.557Z,30.84
2023-03-21T21:09:48.573Z,31.13
2023-03-21T21:12:20.656Z,31.17
2023-03-21T21:14:52.246Z,30.60
2023-03-21T21:18:03.870Z,31.39
2023-03-21T21:20:19.057Z,31.24
2023-03-21T21:22:59.636Z,31.07
2023-03-21T21:25:33.750Z,31.25
2023-03-21T21:28:10.457Z,31.62
2023-03-21T21:30:42.694Z,30.89
2023-03-21T21:33:15.916Z,31.21
2023-03-21T21:35:49.577Z,30.97
2023-03-21T21:38:22.735Z,30.71
2023-03-21T21:40:53.663Z,31.67
2023-03-21T21:43:24.495Z,31.37
2023-03-21T21:45:56.371Z,30.62
2023-03-21T21:48:27.133Z,31.82
2023-03-21T21:50:57.650Z,31.16
2023-03-21T21:53:29.865Z,30.85
2023-03-21T21:56:03.427Z,31.08
2023-03-21T21:58:40.405Z,31.14
2023-03-21T22:01:12.007Z,31.64
2023-03-21T22:03:47.497Z,31.82
2023-03-21T22:06:18.213Z,30.96
2023-03-21T22:08:48.701Z,31.44
2023-03-21T22:11:20.205Z,31.24
2023-03-21T22:13:50.602Z,31.13
2023-03-21T22:16:20.974Z,30.94
2023-03-21T22:18:51.872Z,31.13
2023-03-21T22:21:22.662Z,31.88
2023-03-21T22:23:53.743Z,31.41
2023-03-21T22:26:24.137Z,31.09
2023-03-21T22:28:54.481Z,31.53
2023-03-21T22:31:25.445Z,31.23
2023-03-21T22:33:56.914Z,31.12
2023-03-21T22:36:27.283Z,31.34
2023-03-21T22:38:58.000Z,31.12
2023-03-21T22:41:28.348Z,31.71
2023-03-21T22:43:58.501Z,32.24
2023-03-21T22:46:29.673Z,31.21
2023-03-21T22:49:00.110Z,31.33
2023-03-21T22:51:31.069Z,31.96
2023-03-21T22:54:01.501Z,31.37
2023-03-21T22:56:32.659Z,31.45
2023-03-21T22:59:03.504Z,31.22
2023-03-21T23:01:33.681Z,31.75
2023-03-21T23:04:04.256Z,31.59
2023-03-21T23:06:35.153Z,31.82
2023-03-21T23:09:05.767Z,31.71
2023-03-21T23:11:36.313Z,32.19
2023-03-21T23:14:08.526Z,31.53
2023-03-21T23:16:39.705Z,31.51
2023-03-21T23:19:11.899Z,31.49
2023-03-21T23:21:42.806Z,31.81
2023-03-21T23:24:14.042Z,31.80
2023-03-21T23:26:44.650Z,31.50
2023-03-21T23:29:15.696Z,31.47
2023-03-21T23:31:46.242Z,31.70
2023-03-21T23:34:17.189Z,31.31
2023-03-21T23:36:47.699Z,30.95
2023-03-21T23:39:20.008Z,31.50
2023-03-21T23:41:50.312Z,31.62
2023-03-21T23:44:20.699Z,31.22
2023-03-21T23:46:51.004Z,31.61
2023-03-21T23:49:21.399Z,31.50
2023-03-21T23:51:52.377Z,31.39
2023-03-21T23:54:22.776Z,31.19
2023-03-21T23:56:53.291Z,31.71
2023-03-21T23:59:23.622Z,31.46
